createdAt,value
2017-05-07T00:00:18.019Z,0
2017-05-07T00:00:58.910Z,0
2017-05-07T00:01:39.827Z,0
2017-05-07T00:02:20.740Z,0
2017-05-07T00:03:01.612Z,0
2017-05-07T00:03:42.526Z,0
2017-05-07T00:04:23.446Z,0
2017-05-07T00:06:27.926Z,0
2017-05-07T00:07:08.824Z,0
2017-05-07T00:07:49.792Z,0
2017-05-07T00:08:30.708Z,0
2017-05-07T00:10:39.747Z,0
2017-05-07T00:11:27.487Z,0
2017-05-07T00:12:08.376Z,0
2017-05-07T00:12:49.286Z,0
2017-05-07T00:13:30.175Z,0
2017-05-07T00:14:11.054Z,0
2017-05-07T00:14:51.939Z,0
2017-05-07T00:15:32.846Z,0
2017-05-07T00:16:13.755Z,0
2017-05-07T00:16:54.637Z,0
2017-05-07T00:17:38.363Z,0
2017-05-07T00:18:19.248Z,0
2017-05-07T00:19:00.141Z,0
2017-05-07T00:19:41.014Z,0
2017-05-07T00:20:21.902Z,0
2017-05-07T00:21:02.795Z,0
2017-05-07T00:21:43.683Z,0
2017-05-07T00:22:24.567Z,0
2017-05-07T00:23:05.470Z,0
2017-05-07T00:23:46.349Z,0
2017-05-07T00:24:27.220Z,0
2017-05-07T00:25:08.126Z,0
2017-05-07T00:25:49.043Z,0
2017-05-07T00:27:42.672Z,0
2017-05-07T00:28:23.598Z,0
2017-05-07T00:29:04.476Z,0
2017-05-07T00:31:36.969Z,0
2017-05-07T00:32:17.857Z,0
2017-05-07T00:32:58.741Z,0
2017-05-07T00:33:39.699Z,0
2017-05-07T00:34:20.613Z,0
2017-05-07T00:35:01.528Z,0
2017-05-07T00:35:42.463Z,0
2017-05-07T00:36:23.316Z,0
2017-05-07T00:37:04.252Z,0
2017-05-07T00:37:45.176Z,0
2017-05-07T00:38:26.119Z,0
2017-05-07T00:39:06.998Z,0
2017-05-07T00:39:47.889Z,0
2017-05-07T00:42:29.296Z,0
2017-05-07T00:43:10.173Z,0
2017-05-07T00:45:36.015Z,0
2017-05-07T00:46:16.905Z,0
2017-05-07T00:46:57.793Z,0
2017-05-07T00:47:38.666Z,0
2017-05-07T00:48:19.553Z,0
2017-05-07T00:49:00.437Z,0
2017-05-07T00:49:41.318Z,0
2017-05-07T00:52:15.932Z,0
2017-05-07T00:52:56.821Z,0
2017-05-07T00:53:37.700Z,0
2017-05-07T00:54:18.595Z,0
2017-05-07T00:54:59.495Z,0
2017-05-07T00:57:23.228Z,0
2017-05-07T00:58:04.095Z,0
2017-05-07T00:58:44.987Z,0
2017-05-07T00:59:25.902Z,0
2017-05-07T01:00:06.825Z,0
2017-05-07T01:00:47.718Z,0
2017-05-07T01:01:28.657Z,0
2017-05-07T01:02:09.603Z,0
2017-05-07T01:02:50.486Z,0
2017-05-07T01:03:31.365Z,0
2017-05-07T01:04:12.253Z,0
2017-05-07T01:04:53.138Z,0
2017-05-07T01:05:34.023Z,0
2017-05-07T01:06:14.908Z,0
2017-05-07T01:06:55.787Z,0
2017-05-07T01:07:36.668Z,0
2017-05-07T01:08:17.556Z,0
2017-05-07T01:08:58.437Z,0
2017-05-07T01:09:39.324Z,0
2017-05-07T01:10:20.207Z,0
2017-05-07T01:11:01.122Z,0
2017-05-07T01:11:42.002Z,0
2017-05-07T01:12:22.914Z,0
2017-05-07T01:13:03.821Z,0
2017-05-07T01:13:44.677Z,0
2017-05-07T01:14:25.593Z,0
2017-05-07T01:15:06.440Z,0
2017-05-07T01:15:47.312Z,0
2017-05-07T01:16:28.218Z,0
2017-05-07T01:17:09.148Z,0
2017-05-07T01:17:50.043Z,0
2017-05-07T01:20:19.175Z,0
2017-05-07T01:21:03.006Z,0
2017-05-07T01:21:43.927Z,0
2017-05-07T01:22:24.828Z,0
2017-05-07T01:24:53.992Z,0
2017-05-07T01:25:34.883Z,0
2017-05-07T01:26:22.290Z,0
2017-05-07T01:27:03.185Z,0
2017-05-07T01:27:44.068Z,0
2017-05-07T01:28:25.023Z,0
2017-05-07T01:29:05.856Z,0
2017-05-07T01:29:46.731Z,0
2017-05-07T01:30:27.682Z,0
2017-05-07T01:31:08.616Z,0
2017-05-07T01:31:49.481Z,0
2017-05-07T01:32:30.366Z,0
2017-05-07T01:35:05.676Z,0
2017-05-07T01:35:46.581Z,0
2017-05-07T01:36:27.485Z,0
2017-05-07T01:37:09.134Z,0
2017-05-07T01:39:13.661Z,0
2017-05-07T01:43:01.594Z,0
2017-05-07T01:43:42.538Z,0
2017-05-07T01:44:37.953Z,0
2017-05-07T01:45:18.856Z,0
2017-05-07T01:45:59.752Z,0
2017-05-07T01:46:40.685Z,0
2017-05-07T01:47:21.679Z,0
2017-05-07T01:48:02.576Z,0
2017-05-07T01:48:43.454Z,0
2017-05-07T01:49:24.348Z,0
2017-05-07T01:50:05.223Z,0
2017-05-07T01:50:46.138Z,0
2017-05-07T01:51:27.068Z,0
2017-05-07T01:52:07.959Z,0
2017-05-07T01:52:48.854Z,0
2017-05-07T01:53:29.729Z,0
2017-05-07T01:57:16.805Z,0
2017-05-07T01:59:10.442Z,0
2017-05-07T01:59:51.337Z,0
2017-05-07T02:00:47.096Z,0
2017-05-07T02:01:27.994Z,0
2017-05-07T02:02:08.897Z,0
2017-05-07T02:02:49.793Z,0
2017-05-07T02:03:30.674Z,0
2017-05-07T02:04:26.306Z,0
2017-05-07T02:05:07.175Z,0
2017-05-07T02:05:48.060Z,0
2017-05-07T02:07:46.882Z,0
2017-05-07T02:08:27.802Z,0
2017-05-07T02:10:26.618Z,0
2017-05-07T02:11:07.496Z,0
2017-05-07T02:11:48.394Z,0
2017-05-07T02:12:29.295Z,0
2017-05-07T02:14:58.385Z,0
2017-05-07T02:15:46.079Z,0
2017-05-07T02:16:26.954Z,0
2017-05-07T02:17:07.836Z,0
2017-05-07T02:17:48.736Z,0
2017-05-07T02:18:30.411Z,0
2017-05-07T02:19:11.290Z,0
2017-05-07T02:19:52.198Z,0
2017-05-07T02:20:33.064Z,0
2017-05-07T02:21:13.961Z,0
2017-05-07T02:21:54.912Z,0
2017-05-07T02:22:35.799Z,0
2017-05-07T02:23:16.683Z,0
2017-05-07T02:23:57.581Z,0
2017-05-07T02:24:38.541Z,0
2017-05-07T02:25:34.089Z,0
2017-05-07T02:26:14.975Z,0
2017-05-07T02:27:02.860Z,0
2017-05-07T02:27:43.767Z,0
2017-05-07T02:28:24.706Z,0
2017-05-07T02:29:05.680Z,0
2017-05-07T02:29:46.557Z,0
2017-05-07T02:30:27.457Z,0
2017-05-07T02:31:08.381Z,0
2017-05-07T02:31:49.276Z,0
2017-05-07T02:32:30.250Z,0
2017-05-07T02:33:11.182Z,0
2017-05-07T02:33:52.065Z,0
2017-05-07T02:34:32.956Z,0
2017-05-07T02:35:20.873Z,0
2017-05-07T02:36:01.810Z,0
2017-05-07T02:36:42.640Z,0
2017-05-07T02:37:23.531Z,0
2017-05-07T02:38:04.458Z,0
2017-05-07T02:38:45.372Z,0
2017-05-07T02:39:26.231Z,0
2017-05-07T02:40:07.134Z,0
2017-05-07T02:40:48.012Z,0
2017-05-07T02:41:35.574Z,0
2017-05-07T02:42:16.478Z,0
2017-05-07T02:42:57.380Z,0
2017-05-07T02:43:38.262Z,0
2017-05-07T02:44:19.152Z,0
2017-05-07T02:45:00.028Z,0
2017-05-07T02:45:40.919Z,0
2017-05-07T02:46:21.846Z,0
2017-05-07T02:48:35.589Z,0
2017-05-07T02:49:16.554Z,0
2017-05-07T02:51:35.855Z,0
2017-05-07T02:52:17.350Z,0
2017-05-07T02:52:58.329Z,0
2017-05-07T02:53:39.221Z,0
2017-05-07T02:54:20.132Z,0
2017-05-07T02:55:01.053Z,0
2017-05-07T02:55:41.967Z,0
2017-05-07T02:56:22.850Z,0
2017-05-07T02:57:06.668Z,0
2017-05-07T02:57:47.556Z,0
2017-05-07T03:00:01.732Z,0
2017-05-07T03:00:42.590Z,0
2017-05-07T03:01:23.507Z,0
2017-05-07T03:02:04.392Z,0
2017-05-07T03:02:45.294Z,0
2017-05-07T03:03:26.225Z,0
2017-05-07T03:04:07.123Z,0
2017-05-07T03:04:48.093Z,0
2017-05-07T03:05:28.982Z,0
2017-05-07T03:06:09.883Z,0
2017-05-07T03:06:50.767Z,0
2017-05-07T03:07:31.646Z,0
2017-05-07T03:08:27.516Z,0
2017-05-07T03:09:08.409Z,0
2017-05-07T03:09:49.290Z,0
2017-05-07T03:10:30.194Z,0
2017-05-07T03:11:25.913Z,0
2017-05-07T03:12:06.853Z,0
2017-05-07T03:12:47.729Z,0
2017-05-07T03:13:28.669Z,0
2017-05-07T03:14:16.174Z,0
2017-05-07T03:14:57.049Z,0
2017-05-07T03:15:37.923Z,0
2017-05-07T03:16:18.822Z,0
2017-05-07T03:16:59.690Z,0
2017-05-07T03:17:40.596Z,0
2017-05-07T03:18:21.481Z,0
2017-05-07T03:19:02.391Z,0
2017-05-07T03:19:43.267Z,0
2017-05-07T03:20:24.206Z,0
2017-05-07T03:21:05.098Z,0
2017-05-07T03:21:46.054Z,0
2017-05-07T03:22:26.951Z,0
2017-05-07T03:23:07.861Z,0
2017-05-07T03:23:48.722Z,0
2017-05-07T03:24:29.605Z,0
2017-05-07T03:25:25.112Z,0
2017-05-07T03:26:06.176Z,0
2017-05-07T03:26:47.016Z,0
2017-05-07T03:27:27.888Z,0
2017-05-07T03:28:08.779Z,0
2017-05-07T03:28:49.704Z,0
2017-05-07T03:29:30.598Z,0
2017-05-07T03:30:11.484Z,0
2017-05-07T03:30:52.416Z,0
2017-05-07T03:31:33.290Z,0
2017-05-07T03:32:14.172Z,0
2017-05-07T03:34:53.630Z,0
2017-05-07T03:35:34.466Z,5
2017-05-07T03:36:15.361Z,5
2017-05-07T03:38:29.140Z,5
2017-05-07T03:39:10.048Z,5
2017-05-07T03:39:50.936Z,5
2017-05-07T03:40:31.904Z,5
2017-05-07T03:41:12.802Z,5
2017-05-07T03:41:53.712Z,5
2017-05-07T03:42:34.626Z,5
2017-05-07T03:44:43.621Z,10
2017-05-07T03:45:24.541Z,10
2017-05-07T03:46:05.433Z,10
2017-05-07T03:46:46.321Z,10
2017-05-07T03:47:27.194Z,10
2017-05-07T03:49:40.968Z,10
2017-05-07T03:50:21.870Z,10
2017-05-07T03:51:02.755Z,10
2017-05-07T03:51:43.632Z,10
2017-05-07T03:52:24.523Z,10
2017-05-07T03:54:19.104Z,10
2017-05-07T03:55:14.609Z,10
2017-05-07T03:55:55.487Z,10
2017-05-07T03:56:38.016Z,10
2017-05-07T03:57:18.926Z,10
2017-05-07T03:57:59.806Z,10
2017-05-07T03:58:40.773Z,10
2017-05-07T03:59:21.642Z,10
2017-05-07T04:00:02.524Z,10
2017-05-07T04:00:43.396Z,10
2017-05-07T04:01:24.290Z,5
2017-05-07T04:02:05.229Z,5
2017-05-07T04:02:46.090Z,5
2017-05-07T04:03:26.966Z,5
2017-05-07T04:04:07.882Z,5
2017-05-07T04:04:50.514Z,5
2017-05-07T04:06:44.157Z,5
2017-05-07T04:07:31.781Z,5
2017-05-07T04:08:12.692Z,5
2017-05-07T04:08:53.563Z,5
2017-05-07T04:09:34.446Z,10
2017-05-07T04:10:15.344Z,10
2017-05-07T04:10:56.260Z,10
2017-05-07T04:11:37.164Z,10
2017-05-07T04:12:18.026Z,10
2017-05-07T04:12:58.915Z,10
2017-05-07T04:13:39.816Z,10
2017-05-07T04:14:20.699Z,10
2017-05-07T04:15:01.627Z,10
2017-05-07T04:15:42.535Z,10
2017-05-07T04:16:23.470Z,10
2017-05-07T04:17:04.411Z,10
2017-05-07T04:17:45.312Z,10
2017-05-07T04:18:26.200Z,15
2017-05-07T04:19:07.093Z,15
2017-05-07T04:19:47.970Z,15
2017-05-07T04:20:28.856Z,15
2017-05-07T04:21:09.740Z,15
2017-05-07T04:21:50.622Z,15
2017-05-07T04:22:31.517Z,15
2017-05-07T04:23:12.415Z,15
2017-05-07T04:23:53.308Z,15
2017-05-07T04:24:34.209Z,15
2017-05-07T04:25:15.114Z,20
2017-05-07T04:25:56.014Z,20
2017-05-07T04:26:36.905Z,20
2017-05-07T04:27:17.800Z,20
2017-05-07T04:27:58.750Z,20
2017-05-07T04:30:28.900Z,25
2017-05-07T04:31:09.809Z,25
2017-05-07T04:31:50.765Z,25
2017-05-07T04:32:31.670Z,25
2017-05-07T04:33:12.579Z,30
2017-05-07T04:33:53.495Z,30
2017-05-07T04:34:34.462Z,30
2017-05-07T04:35:15.297Z,30
2017-05-07T04:35:56.174Z,35
2017-05-07T04:38:09.897Z,35
2017-05-07T04:38:50.782Z,35
2017-05-07T04:39:31.697Z,35
2017-05-07T04:40:12.576Z,35
2017-05-07T04:40:53.569Z,40
2017-05-07T04:41:34.434Z,40
2017-05-07T04:42:15.337Z,40
2017-05-07T04:42:57.100Z,40
2017-05-07T04:43:38.020Z,40
2017-05-07T04:44:18.900Z,40
2017-05-07T04:44:59.797Z,40
2017-05-07T04:45:40.744Z,40
2017-05-07T04:46:21.616Z,40
2017-05-07T04:47:02.523Z,40
2017-05-07T04:47:43.421Z,40
2017-05-07T04:48:24.299Z,40
2017-05-07T04:49:05.187Z,40
2017-05-07T04:49:46.068Z,40
2017-05-07T04:50:26.957Z,40
2017-05-07T04:51:15.616Z,45
2017-05-07T04:51:56.553Z,45
2017-05-07T04:52:37.438Z,45
2017-05-07T04:53:18.352Z,45
2017-05-07T04:55:52.612Z,50
2017-05-07T04:56:33.511Z,55
2017-05-07T04:57:14.401Z,55
2017-05-07T04:57:55.278Z,60
2017-05-07T04:58:36.165Z,65
2017-05-07T05:00:45.503Z,70
2017-05-07T05:01:26.393Z,70
2017-05-07T05:02:07.275Z,70
2017-05-07T05:02:48.186Z,70
2017-05-07T05:03:29.087Z,70
2017-05-07T05:04:09.976Z,65
2017-05-07T05:04:50.859Z,65
2017-05-07T05:05:31.749Z,65
2017-05-07T05:06:12.622Z,65
2017-05-07T05:06:53.532Z,65
2017-05-07T05:09:13.401Z,85
2017-05-07T05:09:54.282Z,85
2017-05-07T05:10:35.170Z,85
2017-05-07T05:11:16.104Z,85
2017-05-07T05:11:57.010Z,80
2017-05-07T05:12:37.898Z,75
2017-05-07T05:13:18.808Z,70
2017-05-07T05:13:59.784Z,75
2017-05-07T05:14:40.690Z,80
2017-05-07T05:15:21.609Z,85
2017-05-07T05:16:02.495Z,100
2017-05-07T05:16:43.383Z,110
2017-05-07T05:17:24.326Z,120
2017-05-07T05:18:05.238Z,130
2017-05-07T05:18:46.110Z,130
2017-05-07T05:20:44.876Z,125
2017-05-07T05:21:25.744Z,120
2017-05-07T05:22:06.622Z,115
2017-05-07T05:22:47.523Z,110
2017-05-07T05:23:28.482Z,110
2017-05-07T05:24:09.340Z,105
2017-05-07T05:24:50.176Z,105
2017-05-07T05:25:31.100Z,105
2017-05-07T05:26:12.046Z,100
2017-05-07T05:26:55.815Z,105
2017-05-07T05:27:36.705Z,110
2017-05-07T05:28:17.585Z,110
2017-05-07T05:28:58.500Z,120
2017-05-07T05:29:39.392Z,125
2017-05-07T05:30:20.276Z,125
2017-05-07T05:31:01.162Z,120
2017-05-07T05:31:42.042Z,110
2017-05-07T05:32:22.933Z,105
2017-05-07T05:33:03.823Z,100
2017-05-07T05:33:44.773Z,100
2017-05-07T05:34:25.625Z,100
2017-05-07T05:35:06.538Z,105
2017-05-07T05:35:47.437Z,110
2017-05-07T05:36:28.346Z,110
2017-05-07T05:38:42.153Z,110
2017-05-07T05:39:23.105Z,105
2017-05-07T05:40:04.015Z,100
2017-05-07T05:40:44.915Z,105
2017-05-07T05:41:25.858Z,105
2017-05-07T05:42:06.734Z,105
2017-05-07T05:42:47.660Z,110
2017-05-07T05:43:28.536Z,115
2017-05-07T05:44:09.458Z,120
2017-05-07T05:44:50.367Z,125
2017-05-07T05:45:31.261Z,130
2017-05-07T05:46:12.161Z,125
2017-05-07T05:46:53.062Z,120
2017-05-07T05:47:33.936Z,115
2017-05-07T05:48:14.854Z,115
2017-05-07T05:48:55.786Z,110
2017-05-07T05:49:36.707Z,110
2017-05-07T05:50:17.647Z,100
2017-05-07T05:50:58.504Z,100
2017-05-07T05:51:39.423Z,105
2017-05-07T05:52:20.293Z,110
2017-05-07T05:53:01.224Z,110
2017-05-07T05:53:42.117Z,105
2017-05-07T05:54:23.001Z,105
2017-05-07T05:55:03.885Z,110
2017-05-07T05:55:44.792Z,110
2017-05-07T05:56:25.698Z,105
2017-05-07T05:57:06.628Z,105
2017-05-07T05:57:47.503Z,105
2017-05-07T05:58:28.401Z,110
2017-05-07T05:59:09.284Z,115
2017-05-07T05:59:50.214Z,115
2017-05-07T06:00:31.128Z,110
2017-05-07T06:01:12.053Z,105
2017-05-07T06:01:52.946Z,100
2017-05-07T06:02:33.830Z,105
2017-05-07T06:03:14.716Z,110
2017-05-07T06:03:55.636Z,120
2017-05-07T06:04:36.569Z,125
2017-05-07T06:05:17.432Z,130
2017-05-07T06:05:58.384Z,140
2017-05-07T06:06:39.226Z,135
2017-05-07T06:07:20.097Z,135
2017-05-07T06:08:00.978Z,140
2017-05-07T06:08:41.850Z,145
2017-05-07T06:09:22.805Z,145
2017-05-07T06:10:03.679Z,135
2017-05-07T06:10:44.579Z,125
2017-05-07T06:11:25.474Z,105
2017-05-07T06:12:06.377Z,100
2017-05-07T06:12:47.253Z,85
2017-05-07T06:13:28.129Z,80
2017-05-07T06:14:09.109Z,75
2017-05-07T06:14:50.047Z,75
2017-05-07T06:15:33.601Z,70
2017-05-07T06:16:14.529Z,65
2017-05-07T06:16:55.435Z,65
2017-05-07T06:17:36.367Z,60
2017-05-07T06:18:17.215Z,60
2017-05-07T06:18:58.100Z,60
2017-05-07T06:19:39.091Z,60
2017-05-07T06:20:19.978Z,55
2017-05-07T06:21:15.455Z,50
2017-05-07T06:21:56.378Z,50
2017-05-07T06:22:37.366Z,45
2017-05-07T06:23:18.278Z,45
2017-05-07T06:27:20.273Z,35
2017-05-07T06:28:01.194Z,35
2017-05-07T06:28:42.104Z,35
2017-05-07T06:29:22.957Z,35
2017-05-07T06:30:04.629Z,40
2017-05-07T06:30:45.615Z,40
2017-05-07T06:31:26.496Z,40
2017-05-07T06:32:07.390Z,35
2017-05-07T06:34:07.222Z,35
2017-05-07T06:34:48.118Z,35
2017-05-07T06:35:29.012Z,35
2017-05-07T06:37:27.832Z,35
2017-05-07T06:38:08.716Z,40
2017-05-07T06:38:56.126Z,40
2017-05-07T06:39:37.017Z,40
2017-05-07T06:40:17.948Z,40
2017-05-07T06:40:58.940Z,40
2017-05-07T06:41:39.806Z,45
2017-05-07T06:42:20.743Z,45
2017-05-07T06:43:01.633Z,55
2017-05-07T06:43:42.585Z,65
2017-05-07T06:44:23.474Z,75
2017-05-07T06:45:04.355Z,90
2017-05-07T06:45:45.263Z,100
2017-05-07T06:46:26.190Z,115
2017-05-07T06:47:07.091Z,140
2017-05-07T06:47:48.004Z,165
2017-05-07T06:48:28.890Z,185
2017-05-07T06:49:09.767Z,185
2017-05-07T06:49:50.676Z,185
2017-05-07T06:50:46.122Z,185
2017-05-07T06:51:27.008Z,200
2017-05-07T06:52:07.899Z,220
2017-05-07T06:54:47.326Z,250
2017-05-07T06:55:28.319Z,245
2017-05-07T06:56:09.174Z,240
2017-05-07T06:56:50.084Z,235
2017-05-07T06:59:10.031Z,195
2017-05-07T07:01:19.049Z,175
2017-05-07T07:01:59.927Z,170
2017-05-07T07:02:40.833Z,165
2017-05-07T07:03:21.754Z,170
2017-05-07T07:04:02.650Z,170
2017-05-07T07:04:43.540Z,165
2017-05-07T07:05:31.396Z,150
2017-05-07T07:06:12.330Z,145
2017-05-07T07:06:53.190Z,140
2017-05-07T07:07:34.101Z,135
2017-05-07T07:08:14.998Z,125
2017-05-07T07:08:55.865Z,125
2017-05-07T07:09:36.796Z,125
2017-05-07T07:10:17.694Z,130
2017-05-07T07:10:58.614Z,135
2017-05-07T07:11:39.528Z,125
2017-05-07T07:12:20.488Z,120
2017-05-07T07:13:01.379Z,105
2017-05-07T07:13:42.274Z,105
2017-05-07T07:14:23.146Z,105
2017-05-07T07:15:04.047Z,110
2017-05-07T07:15:44.927Z,115
2017-05-07T07:16:25.810Z,120
2017-05-07T07:17:06.723Z,130
2017-05-07T07:17:47.626Z,140
2017-05-07T07:18:28.642Z,150
2017-05-07T07:19:09.573Z,165
2017-05-07T07:19:50.483Z,175
2017-05-07T07:20:31.367Z,175
2017-05-07T07:21:12.252Z,175
2017-05-07T07:21:53.149Z,175
2017-05-07T07:22:34.106Z,185
2017-05-07T07:23:14.968Z,195
2017-05-07T07:23:55.826Z,210
2017-05-07T07:24:36.798Z,215
2017-05-07T07:25:17.651Z,210
2017-05-07T07:25:58.593Z,195
2017-05-07T07:26:39.491Z,185
2017-05-07T07:28:33.117Z,180
2017-05-07T07:29:14.001Z,175
2017-05-07T07:29:54.874Z,180
2017-05-07T07:30:35.739Z,185
2017-05-07T07:31:16.643Z,195
2017-05-07T07:31:57.532Z,205
2017-05-07T07:32:38.426Z,220
2017-05-07T07:33:19.348Z,235
2017-05-07T07:34:00.209Z,240
2017-05-07T07:34:41.094Z,245
2017-05-07T07:35:22.839Z,260
2017-05-07T07:36:03.761Z,270
2017-05-07T07:36:44.657Z,275
2017-05-07T07:37:25.549Z,280
2017-05-07T07:38:09.071Z,275
2017-05-07T07:38:49.983Z,260
2017-05-07T07:39:30.878Z,225
2017-05-07T07:40:11.756Z,205
2017-05-07T07:40:52.641Z,190
2017-05-07T07:41:33.507Z,190
2017-05-07T07:42:14.392Z,205
2017-05-07T07:42:55.276Z,230
2017-05-07T07:43:36.189Z,245
2017-05-07T07:44:17.072Z,245
2017-05-07T07:44:57.963Z,230
2017-05-07T07:45:38.976Z,210
2017-05-07T07:46:19.877Z,205
2017-05-07T07:47:00.777Z,220
2017-05-07T07:48:59.644Z,300
2017-05-07T07:49:40.577Z,345
2017-05-07T07:50:21.448Z,385
2017-05-07T07:51:02.345Z,435
2017-05-07T07:53:41.869Z,475
2017-05-07T07:54:22.723Z,460
2017-05-07T07:55:03.626Z,450
2017-05-07T07:55:44.520Z,435
2017-05-07T07:56:25.425Z,425
2017-05-07T07:57:06.344Z,400
2017-05-07T07:57:47.261Z,380
2017-05-07T07:58:34.765Z,355
2017-05-07T07:59:15.707Z,320
2017-05-07T07:59:56.578Z,310
2017-05-07T08:00:37.501Z,295
2017-05-07T08:01:18.434Z,295
2017-05-07T08:01:59.289Z,300
2017-05-07T08:02:40.197Z,305
2017-05-07T08:03:21.131Z,310
2017-05-07T08:04:02.020Z,320
2017-05-07T08:04:42.904Z,330
2017-05-07T08:05:23.845Z,335
2017-05-07T08:06:04.793Z,340
2017-05-07T08:06:45.733Z,345
2017-05-07T08:07:26.643Z,345
2017-05-07T08:08:07.534Z,345
2017-05-07T08:08:48.440Z,345
2017-05-07T08:09:29.367Z,350
2017-05-07T08:10:10.272Z,360
2017-05-07T08:10:51.168Z,370
2017-05-07T08:11:32.041Z,375
2017-05-07T08:12:12.947Z,390
2017-05-07T08:12:53.823Z,400
2017-05-07T08:13:34.700Z,410
2017-05-07T08:14:15.624Z,420
2017-05-07T08:14:56.509Z,420
2017-05-07T08:15:37.459Z,435
2017-05-07T08:16:18.353Z,445
2017-05-07T08:16:59.258Z,455
2017-05-07T08:17:40.200Z,460
2017-05-07T08:18:21.128Z,500
2017-05-07T08:19:02.025Z,860
2017-05-07T08:19:42.926Z,590
2017-05-07T08:20:23.864Z,540
2017-05-07T08:21:04.753Z,515
2017-05-07T08:21:45.651Z,500
2017-05-07T08:22:26.692Z,485
2017-05-07T08:23:07.548Z,445
2017-05-07T08:23:48.400Z,405
2017-05-07T08:24:29.326Z,375
2017-05-07T08:26:44.505Z,340
2017-05-07T08:27:25.411Z,340
2017-05-07T08:28:06.317Z,340
2017-05-07T08:28:47.254Z,350
2017-05-07T08:29:28.160Z,360
2017-05-07T08:30:09.033Z,370
2017-05-07T08:30:49.969Z,380
2017-05-07T08:31:30.842Z,390
2017-05-07T08:32:11.735Z,395
2017-05-07T08:32:52.618Z,400
2017-05-07T08:33:33.542Z,400
2017-05-07T08:34:14.459Z,410
2017-05-07T08:34:55.358Z,415
2017-05-07T08:35:36.240Z,425
2017-05-07T08:36:17.180Z,440
2017-05-07T08:38:26.220Z,500
2017-05-07T08:39:07.151Z,500
2017-05-07T08:39:48.068Z,495
2017-05-07T08:40:28.949Z,495
2017-05-07T08:41:09.890Z,490
2017-05-07T08:41:50.793Z,490
2017-05-07T08:42:31.689Z,485
2017-05-07T08:44:48.934Z,565
2017-05-07T08:45:29.888Z,610
2017-05-07T08:46:10.784Z,655
2017-05-07T08:46:51.736Z,700
2017-05-07T08:47:32.678Z,660
2017-05-07T08:48:13.616Z,675
2017-05-07T08:48:54.513Z,715
2017-05-07T08:49:35.425Z,845
2017-05-07T08:50:16.298Z,830
2017-05-07T08:50:57.189Z,920
2017-05-07T08:51:38.108Z,1030
2017-05-07T08:52:18.993Z,1080
2017-05-07T08:52:59.878Z,1295
2017-05-07T08:55:08.947Z,1150
2017-05-07T08:55:49.838Z,1375
2017-05-07T08:56:30.772Z,1045
2017-05-07T08:57:11.723Z,880
2017-05-07T08:57:52.640Z,1295
2017-05-07T08:58:33.505Z,1020
2017-05-07T09:02:00.662Z,510
2017-05-07T09:04:19.963Z,415
2017-05-07T09:05:00.817Z,405
2017-05-07T09:05:41.787Z,410
2017-05-07T09:06:22.673Z,420
2017-05-07T09:07:03.603Z,430
2017-05-07T09:07:44.553Z,440
2017-05-07T09:08:25.449Z,445
2017-05-07T09:09:06.381Z,430
2017-05-07T09:09:47.290Z,430
2017-05-07T09:10:28.177Z,420
2017-05-07T09:11:09.059Z,430
2017-05-07T09:11:49.958Z,455
2017-05-07T09:12:30.875Z,485
2017-05-07T09:13:11.789Z,510
2017-05-07T09:13:52.668Z,520
2017-05-07T09:14:33.584Z,545
2017-05-07T09:15:14.508Z,525
2017-05-07T09:15:55.374Z,510
2017-05-07T09:16:36.346Z,505
2017-05-07T09:17:17.230Z,495
2017-05-07T09:17:58.126Z,475
2017-05-07T09:18:39.025Z,455
2017-05-07T09:19:19.938Z,440
2017-05-07T09:20:00.831Z,425
2017-05-07T09:20:41.734Z,415
2017-05-07T09:21:22.627Z,425
2017-05-07T09:23:38.988Z,455
2017-05-07T09:24:19.919Z,460
2017-05-07T09:25:00.813Z,465
2017-05-07T09:25:41.725Z,475
2017-05-07T09:26:22.609Z,475
2017-05-07T09:27:06.290Z,485
2017-05-07T09:27:47.177Z,505
2017-05-07T09:28:28.065Z,510
2017-05-07T09:29:08.955Z,545
2017-05-07T09:29:49.888Z,560
2017-05-07T09:30:30.842Z,580
2017-05-07T09:31:11.738Z,595
2017-05-07T09:31:52.629Z,775
2017-05-07T09:32:33.498Z,760
2017-05-07T09:33:14.381Z,1275
2017-05-07T09:33:55.288Z,790
2017-05-07T09:34:51.692Z,735
2017-05-07T09:35:32.583Z,710
2017-05-07T09:37:41.614Z,830
2017-05-07T09:38:22.573Z,1445
2017-05-07T09:39:03.466Z,1270
2017-05-07T09:39:44.358Z,990
2017-05-07T09:40:25.290Z,1230
2017-05-07T09:41:06.186Z,1665
2017-05-07T09:41:47.078Z,1385
2017-05-07T09:42:27.980Z,1760
2017-05-07T09:43:08.867Z,1330
2017-05-07T09:43:50.494Z,875
2017-05-07T09:44:31.393Z,890
2017-05-07T09:45:12.287Z,1460
2017-05-07T09:45:56.143Z,790
2017-05-07T09:46:37.034Z,775
2017-05-07T09:47:17.956Z,780
2017-05-07T09:47:58.860Z,730
2017-05-07T09:48:39.791Z,775
2017-05-07T09:49:20.668Z,745
2017-05-07T09:50:01.583Z,1005
2017-05-07T09:50:42.472Z,825
2017-05-07T09:51:28.081Z,890
2017-05-07T09:52:08.976Z,825
2017-05-07T09:52:49.884Z,940
2017-05-07T09:53:30.795Z,780
2017-05-07T09:55:29.583Z,720
2017-05-07T09:56:10.484Z,725
2017-05-07T09:56:51.395Z,710
2017-05-07T09:57:32.287Z,700
2017-05-07T09:58:13.177Z,710
2017-05-07T09:58:54.078Z,755
2017-05-07T09:59:34.958Z,745
2017-05-07T10:00:15.841Z,770
2017-05-07T10:00:56.755Z,725
2017-05-07T10:03:16.167Z,715
2017-05-07T10:03:57.068Z,690
2017-05-07T10:04:37.967Z,705
2017-05-07T10:05:18.868Z,685
2017-05-07T10:05:59.777Z,695
2017-05-07T10:06:40.696Z,715
2017-05-07T10:07:21.595Z,710
2017-05-07T10:08:02.472Z,685
2017-05-07T10:08:43.364Z,685
2017-05-07T10:09:24.265Z,685
2017-05-07T10:10:05.165Z,660
2017-05-07T10:12:24.086Z,820
2017-05-07T10:13:19.578Z,765
2017-05-07T10:14:00.466Z,770
2017-05-07T10:14:41.377Z,805
2017-05-07T10:15:22.291Z,805
2017-05-07T10:16:03.189Z,765
2017-05-07T10:16:44.080Z,805
2017-05-07T10:17:24.992Z,740
2017-05-07T10:18:05.856Z,755
2017-05-07T10:20:24.776Z,720
2017-05-07T10:21:05.695Z,695
2017-05-07T10:21:46.596Z,690
2017-05-07T10:22:27.492Z,690
2017-05-07T10:23:08.390Z,680
2017-05-07T10:23:49.319Z,695
2017-05-07T10:24:30.206Z,680
2017-05-07T10:25:11.100Z,785
2017-05-07T10:25:52.003Z,670
2017-05-07T10:27:50.867Z,635
2017-05-07T10:28:31.760Z,610
2017-05-07T10:29:12.654Z,605
2017-05-07T10:29:53.555Z,590
2017-05-07T10:30:34.452Z,585
2017-05-07T10:31:15.393Z,570
2017-05-07T10:31:56.256Z,620
2017-05-07T10:32:37.169Z,615
2017-05-07T10:33:29.709Z,575
2017-05-07T10:34:10.813Z,585
2017-05-07T10:34:51.679Z,670
2017-05-07T10:35:32.588Z,650
2017-05-07T10:36:13.526Z,805
2017-05-07T10:36:54.434Z,665
2017-05-07T10:37:35.360Z,745
2017-05-07T10:38:16.238Z,645
2017-05-07T10:38:57.136Z,645
2017-05-07T10:39:38.044Z,2005
2017-05-07T10:40:19.031Z,890
2017-05-07T10:40:59.929Z,745
2017-05-07T10:41:40.838Z,810
2017-05-07T10:42:21.755Z,1055
2017-05-07T10:43:02.650Z,820
2017-05-07T10:43:43.637Z,1795
2017-05-07T10:44:24.524Z,1190
2017-05-07T10:45:05.442Z,1415
2017-05-07T10:45:46.364Z,1235
2017-05-07T10:46:27.256Z,1240
2017-05-07T10:51:19.887Z,710
2017-05-07T10:52:00.793Z,1555
2017-05-07T10:52:41.752Z,1185
2017-05-07T10:53:22.631Z,915
2017-05-07T10:54:03.524Z,1100
2017-05-07T10:54:44.441Z,2150
2017-05-07T10:55:25.346Z,1180
2017-05-07T10:56:06.240Z,1755
2017-05-07T10:56:47.139Z,935
2017-05-07T10:57:28.073Z,1175
2017-05-07T10:58:08.976Z,1735
2017-05-07T10:58:49.885Z,960
2017-05-07T10:59:30.815Z,2025
2017-05-07T11:00:11.703Z,1120
2017-05-07T11:00:52.597Z,1275
2017-05-07T11:01:33.491Z,1670
2017-05-07T11:02:14.431Z,2435
2017-05-07T11:02:55.321Z,2410
2017-05-07T11:03:36.224Z,2320
2017-05-07T11:04:17.162Z,2115
2017-05-07T11:04:58.086Z,2170
2017-05-07T11:05:38.984Z,2075
2017-05-07T11:06:19.891Z,1080
2017-05-07T11:07:00.785Z,740
2017-05-07T11:07:41.707Z,1430
2017-05-07T11:08:22.603Z,2800
2017-05-07T11:09:03.538Z,2520
2017-05-07T11:09:44.421Z,1310
2017-05-07T11:10:25.329Z,885
2017-05-07T11:11:06.217Z,880
2017-05-07T11:11:47.140Z,835
2017-05-07T11:12:27.997Z,635
2017-05-07T11:13:08.973Z,540
2017-05-07T11:13:49.882Z,525
2017-05-07T11:14:30.785Z,525
2017-05-07T11:15:11.707Z,510
2017-05-07T11:15:52.604Z,530
2017-05-07T11:16:33.605Z,655
2017-05-07T11:17:14.584Z,725
2017-05-07T11:17:55.517Z,805
2017-05-07T11:18:36.356Z,1140
2017-05-07T11:19:17.241Z,1530
2017-05-07T11:19:58.139Z,2060
2017-05-07T11:20:39.011Z,2115
2017-05-07T11:21:20.001Z,1520